createdAt,value
2019-04-10T00:01:21.966Z,100154.65
2019-04-10T00:03:55.322Z,100154.28
2019-04-10T00:06:27.875Z,100159.94
2019-04-10T00:09:00.887Z,100152.92
2019-04-10T00:11:34.583Z,100150.90
2019-04-10T00:15:16.114Z,100147.88
2019-04-10T00:17:40.918Z,100154.11
2019-04-10T00:20:12.859Z,100155.40
2019-04-10T00:22:44.964Z,100148.95
2019-04-10T00:25:16.893Z,100147.44
2019-04-10T00:27:48.761Z,100145.90
2019-04-10T00:30:22.496Z,100146.60
2019-04-10T00:32:54.495Z,100141.25
2019-04-10T00:35:27.671Z,100139.13
2019-04-10T00:37:59.691Z,100140.11
2019-04-10T00:40:33.209Z,100139.42
2019-04-10T00:43:06.587Z,100133.73
2019-04-10T00:45:51.443Z,100133.09
2019-04-10T00:48:23.969Z,100140.73
2019-04-10T00:50:56.881Z,100136.84
2019-04-10T00:53:29.533Z,100141.92
2019-04-10T00:56:01.933Z,100137.34
2019-04-10T00:58:33.896Z,100138.34
2019-04-10T01:01:05.701Z,100133.52
2019-04-10T01:03:44.270Z,100129.24
2019-04-10T01:06:16.875Z,100125.91
2019-04-10T01:08:48.924Z,100125.44
2019-04-10T01:11:21.124Z,100122.48
2019-04-10T01:13:53.711Z,100117.34
2019-04-10T01:16:25.555Z,100128.47
2019-04-10T01:19:15.484Z,100124.89
2019-04-10T01:22:00.984Z,100124.89
2019-04-10T01:24:25.783Z,100123.66
2019-04-10T01:26:57.796Z,100121.23
2019-04-10T01:29:41.823Z,100119.98
2019-04-10T01:35:44.681Z,100116.59
2019-04-10T01:41:50.148Z,100110.34
2019-04-10T01:44:24.734Z,100106.23
2019-04-10T01:52:39.218Z,100104.60
2019-04-10T01:55:20.079Z,100101.61
2019-04-10T01:57:44.880Z,100104.75
2019-04-10T02:00:19.545Z,100093.17
2019-04-10T02:02:52.508Z,100098.20
2019-04-10T02:05:24.857Z,100099.61
2019-04-10T02:08:03.210Z,100102.08
2019-04-10T02:10:30.069Z,100097.02
2019-04-10T02:13:03.153Z,100107.53
2019-04-10T02:15:34.945Z,100105.81
2019-04-10T02:18:06.734Z,100106.27
2019-04-10T02:20:38.913Z,100104.73
2019-04-10T02:23:10.745Z,100109.78
2019-04-10T02:25:43.188Z,100108.77
2019-04-10T02:28:15.124Z,100105.44
2019-04-10T02:30:47.890Z,100099.06
2019-04-10T02:33:19.796Z,100100.47
2019-04-10T02:35:52.626Z,100103.57
2019-04-10T02:38:40.085Z,100103.31
2019-04-10T02:40:59.202Z,100103.55
2019-04-10T02:43:31.187Z,100104.55
2019-04-10T02:46:04.067Z,100107.42
2019-04-10T02:48:36.301Z,100103.69
2019-04-10T02:51:09.593Z,100093.53
2019-04-10T02:53:43.696Z,100100.32
2019-04-10T02:56:18.056Z,100103.38
2019-04-10T02:58:51.563Z,100100.50
2019-04-10T03:01:25.175Z,100102.19
2019-04-10T03:03:57.301Z,100108.56
2019-04-10T03:06:29.376Z,100113.16
2019-04-10T03:09:16.333Z,100112.79
2019-04-10T03:11:35.830Z,100104.58
2019-04-10T03:14:08.089Z,100114.91
2019-04-10T03:16:41.704Z,100108.56
2019-04-10T03:19:13.757Z,100098.60
2019-04-10T03:21:47.063Z,100098.52
2019-04-10T03:24:19.192Z,100091.52
2019-04-10T03:26:52.067Z,100110.78
2019-04-10T03:29:24.121Z,100108.14
2019-04-10T03:31:57.573Z,100101.08
2019-04-10T03:34:34.280Z,100092.42
2019-04-10T03:37:04.890Z,100099.03
2019-04-10T03:39:36.632Z,100105.55
2019-04-10T03:42:08.570Z,100105.63
2019-04-10T03:44:40.879Z,100106.34
2019-04-10T03:47:13.325Z,100108.80
2019-04-10T03:49:46.778Z,100106.78
2019-04-10T03:52:19.003Z,100110.41
2019-04-10T03:54:50.922Z,100103.80
2019-04-10T03:57:22.677Z,100105.29
2019-04-10T03:59:55.943Z,100099.30
2019-04-10T04:02:27.991Z,100103.58
2019-04-10T04:04:59.726Z,100112.66
2019-04-10T04:07:33.105Z,100112.49
2019-04-10T04:10:06.358Z,100109.72
2019-04-10T04:12:39.155Z,100114.61
2019-04-10T04:15:13.555Z,100112.20
2019-04-10T04:17:46.496Z,100114.69
2019-04-10T04:20:19.098Z,100119.99
2019-04-10T04:22:50.958Z,100122.02
2019-04-10T04:25:22.685Z,100117.97
2019-04-10T04:27:55.738Z,100112.77
2019-04-10T04:30:30.350Z,100111.37
2019-04-10T04:33:02.525Z,100114.17
2019-04-10T04:35:34.679Z,100122.86
2019-04-10T04:38:07.148Z,100117.58
2019-04-10T04:40:39.153Z,100116.38
2019-04-10T04:43:10.875Z,100114.31
2019-04-10T04:45:42.595Z,100108.48
2019-04-10T04:48:14.578Z,100116.81
2019-04-10T04:50:47.061Z,100115.41
2019-04-10T04:53:18.783Z,100113.00
2019-04-10T04:55:51.421Z,100114.55
2019-04-10T04:58:24.266Z,100120.06
2019-04-10T05:00:58.483Z,100114.01
2019-04-10T05:03:31.392Z,100118.52
2019-04-10T05:06:05.604Z,100128.62
2019-04-10T05:08:37.910Z,100126.75
2019-04-10T05:11:09.885Z,100132.13
2019-04-10T05:13:42.417Z,100124.75
2019-04-10T05:16:14.900Z,100119.53
2019-04-10T05:18:47.613Z,100116.89
2019-04-10T05:21:19.528Z,100117.11
2019-04-10T05:23:51.345Z,100113.31
2019-04-10T05:26:24.261Z,100126.45
2019-04-10T05:28:57.026Z,100126.21
2019-04-10T05:31:30.178Z,100127.53
2019-04-10T05:34:02.977Z,100121.17
2019-04-10T05:36:34.943Z,100120.22
2019-04-10T05:39:08.616Z,100121.94
2019-04-10T05:41:40.373Z,100120.62
2019-04-10T05:44:12.153Z,100119.75
2019-04-10T05:46:45.227Z,100114.47
2019-04-10T05:49:17.314Z,100119.77
2019-04-10T05:51:50.091Z,100118.52
2019-04-10T05:54:24.601Z,100123.17
2019-04-10T05:56:58.994Z,100135.22
2019-04-10T05:59:32.468Z,100142.68
2019-04-10T06:02:05.317Z,100135.31
2019-04-10T06:04:37.827Z,100135.06
2019-04-10T06:07:10.647Z,100133.12
2019-04-10T06:09:54.017Z,100133.75
2019-04-10T06:12:16.091Z,100131.36
2019-04-10T06:14:48.531Z,100131.81
2019-04-10T06:17:20.748Z,100144.47
2019-04-10T06:19:53.114Z,100147.28
2019-04-10T06:22:28.408Z,100152.70
2019-04-10T06:25:00.767Z,100158.94
2019-04-10T06:27:34.440Z,100164.59
2019-04-10T06:30:07.889Z,100157.00
2019-04-10T06:32:40.208Z,100164.14
2019-04-10T06:35:13.495Z,100174.49
2019-04-10T06:37:46.414Z,100175.39
2019-04-10T06:40:21.083Z,100165.22
2019-04-10T06:42:53.924Z,100171.69
2019-04-10T06:45:26.267Z,100175.89
2019-04-10T06:47:58.425Z,100171.43
2019-04-10T06:50:31.482Z,100170.34
2019-04-10T06:53:04.171Z,100175.67
2019-04-10T06:55:36.480Z,100181.64
2019-04-10T06:58:09.788Z,100180.27
2019-04-10T07:00:46.679Z,100187.11
2019-04-10T07:03:16.943Z,100180.23
2019-04-10T07:06:02.467Z,100188.69
2019-04-10T07:08:27.262Z,100192.71
2019-04-10T07:11:05.110Z,100191.79
2019-04-10T07:13:36.847Z,100195.88
2019-04-10T07:16:09.544Z,100197.81
2019-04-10T07:18:41.220Z,100196.73
2019-04-10T07:21:14.583Z,100198.27
2019-04-10T07:23:46.937Z,100201.66
2019-04-10T07:26:29.122Z,100199.86
2019-04-10T07:28:53.358Z,100197.13
2019-04-10T07:31:27.435Z,100203.02
2019-04-10T07:33:59.962Z,100201.96
2019-04-10T07:36:32.898Z,100208.09
2019-04-10T07:39:05.501Z,100207.50
2019-04-10T07:41:41.720Z,100204.55
2019-04-10T07:44:13.542Z,100210.70
2019-04-10T07:46:46.535Z,100202.29
2019-04-10T07:49:19.820Z,100208.12
2019-04-10T07:51:53.902Z,100210.14
2019-04-10T07:54:26.723Z,100211.77
2019-04-10T07:56:58.492Z,100211.14
2019-04-10T07:59:31.464Z,100221.16
2019-04-10T08:02:05.947Z,100218.34
2019-04-10T08:04:37.408Z,100215.03
2019-04-10T08:07:09.526Z,100220.72
2019-04-10T08:09:42.943Z,100225.48
2019-04-10T08:12:16.073Z,100222.48
2019-04-10T08:14:48.902Z,100225.53
2019-04-10T08:17:21.795Z,100223.05
2019-04-10T08:19:53.668Z,100226.21
2019-04-10T08:22:26.433Z,100223.19
2019-04-10T08:24:58.264Z,100233.30
2019-04-10T08:27:30.022Z,100227.51
2019-04-10T08:30:01.768Z,100225.88
2019-04-10T08:32:47.306Z,100225.73
2019-04-10T08:35:08.970Z,100232.87
2019-04-10T08:37:41.159Z,100234.40
2019-04-10T08:40:13.514Z,100236.39
2019-04-10T08:42:46.623Z,100238.03
2019-04-10T08:45:19.011Z,100241.66
2019-04-10T08:47:52.644Z,100249.92
2019-04-10T08:50:24.670Z,100251.31
2019-04-10T08:52:56.405Z,100248.88
2019-04-10T08:55:28.315Z,100242.97
2019-04-10T08:58:00.756Z,100242.88
2019-04-10T09:00:32.853Z,100241.09
2019-04-10T09:03:04.813Z,100255.52
2019-04-10T09:05:38.569Z,100242.88
2019-04-10T09:08:10.804Z,100242.65
2019-04-10T09:10:42.943Z,100249.53
2019-04-10T09:13:14.744Z,100251.99
2019-04-10T09:15:47.943Z,100248.73
2019-04-10T09:18:20.972Z,100250.72
2019-04-10T09:20:53.143Z,100254.98
2019-04-10T09:23:36.232Z,100264.41
2019-04-10T09:25:59.571Z,100260.50
2019-04-10T09:28:33.307Z,100273.45
2019-04-10T09:31:05.172Z,100273.53
2019-04-10T09:33:37.029Z,100275.25
2019-04-10T09:36:09.087Z,100276.78
2019-04-10T09:38:41.290Z,100278.82
2019-04-10T09:41:13.998Z,100280.63
2019-04-10T09:43:51.153Z,100280.94
2019-04-10T09:46:22.869Z,100277.68
2019-04-10T09:48:54.676Z,100273.84
2019-04-10T09:51:26.682Z,100275.07
2019-04-10T09:53:59.437Z,100274.55
2019-04-10T09:56:32.078Z,100277.49
2019-04-10T09:59:04.045Z,100278.58
2019-04-10T10:01:37.958Z,100282.56
2019-04-10T10:04:10.044Z,100279.48
2019-04-10T10:06:41.770Z,100278.77
2019-04-10T10:09:15.357Z,100281.27
2019-04-10T10:11:49.753Z,100282.02
2019-04-10T10:14:21.678Z,100273.42
2019-04-10T10:16:53.397Z,100275.31
2019-04-10T10:19:25.960Z,100282.31
2019-04-10T10:22:01.625Z,100277.33
2019-04-10T10:24:33.113Z,100277.23
2019-04-10T10:27:05.345Z,100273.01
2019-04-10T10:29:37.684Z,100278.42
2019-04-10T10:32:09.446Z,100269.70
2019-04-10T10:34:41.180Z,100270.19
2019-04-10T10:37:13.010Z,100279.86
2019-04-10T10:39:47.242Z,100273.06
2019-04-10T10:42:19.334Z,100268.93
2019-04-10T10:44:58.487Z,100278.52
2019-04-10T10:47:30.702Z,100283.67
2019-04-10T10:50:04.613Z,100282.50
2019-04-10T10:52:37.631Z,100290.39
2019-04-10T10:55:11.663Z,100280.05
2019-04-10T10:57:45.446Z,100274.84
2019-04-10T11:00:18.921Z,100280.48
2019-04-10T11:02:51.834Z,100269.06
2019-04-10T11:05:23.715Z,100265.99
2019-04-10T11:07:55.889Z,100257.52
2019-04-10T11:10:27.716Z,100261.25
2019-04-10T11:13:00.074Z,100257.87
2019-04-10T11:15:32.048Z,100262.16
2019-04-10T11:18:04.288Z,100259.80
2019-04-10T11:20:36.476Z,100261.29
2019-04-10T11:23:09.406Z,100261.40
2019-04-10T11:25:43.865Z,100263.73
2019-04-10T11:28:16.273Z,100262.42
2019-04-10T11:30:49.167Z,100254.75
2019-04-10T11:33:22.294Z,100256.58
2019-04-10T11:35:55.234Z,100255.48
2019-04-10T11:38:27.336Z,100251.48
2019-04-10T11:41:00.108Z,100253.25
2019-04-10T11:43:33.642Z,100254.59
2019-04-10T11:46:07.810Z,100249.06
2019-04-10T11:48:41.854Z,100240.23
2019-04-10T11:51:14.144Z,100245.23
2019-04-10T11:53:48.700Z,100235.34
2019-04-10T11:56:21.094Z,100241.21
2019-04-10T11:58:56.318Z,100235.55
2019-04-10T12:01:30.943Z,100234.31
2019-04-10T12:04:05.124Z,100246.17
2019-04-10T12:06:38.218Z,100242.28
2019-04-10T12:09:56.936Z,100239.10
2019-04-10T12:11:50.299Z,100241.80
2019-04-10T12:14:23.638Z,100231.91
2019-04-10T12:16:55.823Z,100227.63
2019-04-10T12:19:28.946Z,100241.59
2019-04-10T12:22:01.210Z,100233.61
2019-04-10T12:24:32.912Z,100235.77
2019-04-10T12:27:04.685Z,100230.16
2019-04-10T12:29:38.467Z,100230.24
2019-04-10T12:32:10.673Z,100229.11
2019-04-10T12:34:43.244Z,100218.91
2019-04-10T12:37:15.401Z,100219.98
2019-04-10T12:39:47.872Z,100216.96
2019-04-10T12:42:21.845Z,100222.70
2019-04-10T12:44:53.665Z,100226.00
2019-04-10T12:47:25.944Z,100233.84
2019-04-10T12:49:58.338Z,100225.48
2019-04-10T12:52:30.449Z,100237.65
2019-04-10T12:55:02.174Z,100222.56
2019-04-10T12:57:34.736Z,100226.63
2019-04-10T13:00:09.628Z,100230.37
2019-04-10T13:02:42.715Z,100229.05
2019-04-10T13:05:14.565Z,100229.18
2019-04-10T13:07:47.775Z,100220.88
2019-04-10T13:10:20.381Z,100215.02
2019-04-10T13:12:53.277Z,100210.86
2019-04-10T13:15:25.687Z,100210.77
2019-04-10T13:17:58.398Z,100206.62
2019-04-10T13:20:31.568Z,100211.72
2019-04-10T13:23:04.438Z,100212.48
2019-04-10T13:25:36.716Z,100209.11
2019-04-10T13:28:09.867Z,100211.51
2019-04-10T13:30:49.717Z,100216.97
2019-04-10T13:33:16.228Z,100209.23
2019-04-10T13:35:49.126Z,100217.59
2019-04-10T13:38:26.592Z,100216.75
2019-04-10T13:40:54.752Z,100216.48
2019-04-10T13:43:27.614Z,100204.45
2019-04-10T13:46:00.444Z,100209.86
2019-04-10T13:48:33.230Z,100201.06
2019-04-10T13:51:05.417Z,100199.03
2019-04-10T13:53:37.757Z,100191.07
2019-04-10T13:56:11.413Z,100197.74
2019-04-10T13:58:43.130Z,100190.42
2019-04-10T14:01:20.292Z,100189.39
2019-04-10T14:03:52.435Z,100190.54
2019-04-10T14:06:25.420Z,100189.14
2019-04-10T14:09:11.894Z,100191.70
2019-04-10T14:11:30.782Z,100194.66
2019-04-10T14:14:04.403Z,100191.92
2019-04-10T14:16:37.825Z,100199.25
2019-04-10T14:19:09.842Z,100198.11
2019-04-10T14:21:41.570Z,100194.95
2019-04-10T14:24:13.369Z,100199.22
2019-04-10T14:27:01.618Z,100200.59
2019-04-10T14:29:34.328Z,100205.68
2019-04-10T14:32:09.150Z,100197.00
2019-04-10T14:34:40.955Z,100203.27
2019-04-10T14:37:13.833Z,100207.53
2019-04-10T14:39:45.563Z,100205.73
2019-04-10T14:42:18.478Z,100205.19
2019-04-10T14:44:50.284Z,100201.06
2019-04-10T14:47:25.695Z,100201.08
2019-04-10T14:49:58.026Z,100196.86
2019-04-10T14:52:30.165Z,100191.30
2019-04-10T14:55:02.162Z,100188.45
2019-04-10T14:57:34.965Z,100201.28
2019-04-10T15:00:08.862Z,100189.16
2019-04-10T15:02:41.268Z,100193.53
2019-04-10T15:05:13.379Z,100190.39
2019-04-10T15:07:45.148Z,100184.95
2019-04-10T15:10:17.059Z,100180.92
2019-04-10T15:12:49.731Z,100188.38
2019-04-10T15:15:21.578Z,100194.72
2019-04-10T15:17:54.158Z,100195.66
2019-04-10T15:20:26.009Z,100194.38
2019-04-10T15:22:58.637Z,100202.28
2019-04-10T15:25:31.157Z,100199.26
2019-04-10T15:28:02.936Z,100206.44
2019-04-10T15:30:35.593Z,100202.01
2019-04-10T15:33:07.314Z,100203.88
2019-04-10T15:35:39.211Z,100201.68
2019-04-10T15:38:18.716Z,100202.54
2019-04-10T15:40:52.572Z,100192.33
2019-04-10T15:43:25.402Z,100195.61
2019-04-10T15:45:57.796Z,100201.28
2019-04-10T15:48:29.551Z,100199.21
2019-04-10T15:51:01.339Z,100200.69
2019-04-10T15:53:34.534Z,100208.19
2019-04-10T15:56:06.506Z,100203.08
2019-04-10T15:58:38.226Z,100212.39
2019-04-10T16:01:13.966Z,100205.03
2019-04-10T16:03:45.663Z,100208.05
2019-04-10T16:06:17.535Z,100204.06
2019-04-10T16:08:50.271Z,100205.22
2019-04-10T16:11:57.068Z,100198.67
2019-04-10T16:14:31.497Z,100207.96
2019-04-10T16:17:22.903Z,100207.88
2019-04-10T16:20:02.090Z,100214.55
2019-04-10T16:22:40.548Z,100211.15
2019-04-10T16:25:17.866Z,100216.09
2019-04-10T16:27:50.076Z,100211.50
2019-04-10T16:30:24.230Z,100210.70
2019-04-10T16:32:55.988Z,100217.49
2019-04-10T16:35:32.485Z,100214.22
2019-04-10T16:38:05.124Z,100211.98
2019-04-10T16:40:40.050Z,100222.23
2019-04-10T16:43:13.843Z,100221.09
2019-04-10T16:45:46.922Z,100225.87
2019-04-10T16:48:18.939Z,100219.53
2019-04-10T16:50:51.853Z,100218.66
2019-04-10T16:53:23.787Z,100227.80
2019-04-10T16:55:56.780Z,100234.05
2019-04-10T16:58:29.740Z,100235.15
2019-04-10T17:01:02.249Z,100239.84
2019-04-10T17:03:34.255Z,100228.55
2019-04-10T17:06:06.106Z,100235.10
2019-04-10T17:08:40.538Z,100236.44
2019-04-10T17:11:13.310Z,100235.05
2019-04-10T17:13:45.075Z,100227.55
2019-04-10T17:16:17.726Z,100232.53
2019-04-10T17:18:49.665Z,100232.43
2019-04-10T17:21:23.090Z,100232.85
2019-04-10T17:23:54.859Z,100237.61
2019-04-10T17:26:26.957Z,100242.64
2019-04-10T17:28:58.899Z,100243.52
2019-04-10T17:31:32.818Z,100245.17
2019-04-10T17:34:04.673Z,100246.73
2019-04-10T17:36:36.885Z,100242.12
2019-04-10T17:39:16.184Z,100251.05
2019-04-10T17:41:48.193Z,100254.44
2019-04-10T17:44:21.658Z,100260.70
2019-04-10T17:46:53.438Z,100260.38
2019-04-10T17:49:25.858Z,100265.06
2019-04-10T17:51:58.715Z,100265.41
2019-04-10T17:54:31.408Z,100268.73
2019-04-10T17:57:04.510Z,100276.00
2019-04-10T17:59:36.584Z,100281.71
2019-04-10T18:02:11.764Z,100273.33
2019-04-10T18:04:44.242Z,100281.83
2019-04-10T18:07:16.307Z,100280.64
2019-04-10T18:09:48.567Z,100282.87
2019-04-10T18:12:21.619Z,100287.42
2019-04-10T18:14:53.576Z,100288.02
2019-04-10T18:17:25.410Z,100292.92
2019-04-10T18:19:57.175Z,100290.37
2019-04-10T18:22:30.689Z,100289.19
2019-04-10T18:25:03.484Z,100289.77
2019-04-10T18:27:36.493Z,100297.75
2019-04-10T18:30:09.939Z,100302.13
2019-04-10T18:32:42.209Z,100296.38
2019-04-10T18:35:14.330Z,100297.87
2019-04-10T18:37:47.689Z,100301.30
2019-04-10T18:40:21.698Z,100303.19
2019-04-10T18:42:56.138Z,100308.98
2019-04-10T18:45:28.025Z,100312.90
2019-04-10T18:48:00.620Z,100313.27
2019-04-10T18:50:32.719Z,100313.56
2019-04-10T18:53:04.621Z,100317.09
2019-04-10T18:55:36.861Z,100316.13
2019-04-10T18:58:13.730Z,100326.22
2019-04-10T19:01:14.225Z,100324.89
2019-04-10T19:04:16.816Z,100333.80
2019-04-10T19:06:57.293Z,100332.73
2019-04-10T19:09:36.862Z,100327.98
2019-04-10T19:12:08.893Z,100329.31
2019-04-10T19:14:40.804Z,100336.09
2019-04-10T19:17:13.007Z,100342.75
2019-04-10T19:19:45.423Z,100346.44
2019-04-10T19:22:20.300Z,100341.59
2019-04-10T19:24:52.542Z,100329.00
2019-04-10T19:27:25.549Z,100359.25
2019-04-10T19:30:00.886Z,100357.36
2019-04-10T19:32:37.435Z,100361.51
2019-04-10T19:35:09.442Z,100370.09
2019-04-10T19:37:42.666Z,100375.91
2019-04-10T19:40:15.926Z,100374.02
2019-04-10T19:42:47.766Z,100379.28
2019-04-10T19:45:19.582Z,100392.80
2019-04-10T19:47:52.719Z,100395.66
2019-04-10T19:50:25.527Z,100398.69
2019-04-10T19:52:57.715Z,100405.78
2019-04-10T19:55:30.257Z,100408.33
2019-04-10T19:58:03.830Z,100417.47
2019-04-10T20:00:36.876Z,100423.42
2019-04-10T20:03:11.194Z,100426.53
2019-04-10T20:05:44.243Z,100427.40
2019-04-10T20:08:17.516Z,100435.11
2019-04-10T20:10:50.469Z,100442.14
2019-04-10T20:13:22.730Z,100441.03
2019-04-10T20:15:55.181Z,100447.87
2019-04-10T20:18:29.632Z,100446.83
2019-04-10T20:21:03.850Z,100459.88
2019-04-10T20:23:36.155Z,100457.03
2019-04-10T20:26:08.283Z,100460.39
2019-04-10T20:28:42.805Z,100462.68
2019-04-10T20:31:25.557Z,100467.83
2019-04-10T20:33:57.568Z,100466.66
2019-04-10T20:36:31.803Z,100466.22
2019-04-10T20:39:05.949Z,100461.18
2019-04-10T20:41:46.534Z,100467.23
2019-04-10T20:44:12.463Z,100472.11
2019-04-10T20:46:44.518Z,100475.53
2019-04-10T20:49:16.689Z,100480.77
2019-04-10T20:51:48.927Z,100479.57
2019-04-10T20:54:22.510Z,100489.25
2019-04-10T20:56:54.891Z,100487.47
2019-04-10T20:59:26.924Z,100491.50
2019-04-10T21:01:59.934Z,100492.48
2019-04-10T21:04:33.848Z,100494.14
2019-04-10T21:07:06.902Z,100491.70
2019-04-10T21:09:39.584Z,100493.97
2019-04-10T21:12:17.466Z,100493.32
2019-04-10T21:14:47.789Z,100495.35
2019-04-10T21:17:20.512Z,100494.91
2019-04-10T21:19:53.692Z,100494.07
2019-04-10T21:22:26.506Z,100490.95
2019-04-10T21:25:00.593Z,100491.19
2019-04-10T21:27:32.988Z,100493.68
2019-04-10T21:30:24.226Z,100492.62
2019-04-10T21:33:18.389Z,100485.94
2019-04-10T21:35:51.958Z,100480.39
2019-04-10T21:38:26.196Z,100485.69
2019-04-10T21:40:59.393Z,100486.55
2019-04-10T21:43:32.624Z,100480.39
2019-04-10T21:46:06.085Z,100474.23
2019-04-10T21:48:39.104Z,100476.56
2019-04-10T21:51:12.204Z,100483.73
2019-04-10T21:53:45.162Z,100494.50
2019-04-10T21:56:18.075Z,100492.38
2019-04-10T21:58:50.076Z,100497.71
2019-04-10T22:01:24.244Z,100497.35
2019-04-10T22:03:58.482Z,100492.17
2019-04-10T22:06:40.168Z,100493.99
2019-04-10T22:09:30.541Z,100491.21
2019-04-10T22:12:22.197Z,100495.87
2019-04-10T22:14:43.872Z,100492.89
2019-04-10T22:17:17.493Z,100490.34
2019-04-10T22:19:49.322Z,100491.28
2019-04-10T22:22:22.255Z,100496.41
2019-04-10T22:24:54.764Z,100497.48
2019-04-10T22:27:29.553Z,100494.03
2019-04-10T22:30:02.896Z,100492.62
2019-04-10T22:32:36.179Z,100494.80
2019-04-10T22:35:08.966Z,100497.23
2019-04-10T22:37:41.290Z,100498.03
2019-04-10T22:40:13.132Z,100495.16
2019-04-10T22:42:47.873Z,100491.11
2019-04-10T22:45:30.910Z,100490.43
2019-04-10T22:48:04.048Z,100484.91
2019-04-10T22:50:36.474Z,100485.58
2019-04-10T22:53:08.918Z,100491.64
2019-04-10T22:55:42.060Z,100494.77
2019-04-10T22:58:15.325Z,100491.97
2019-04-10T23:00:48.844Z,100499.23
2019-04-10T23:03:22.318Z,100495.77
2019-04-10T23:05:56.492Z,100506.06
2019-04-10T23:08:28.898Z,100502.55
2019-04-10T23:11:01.481Z,100506.00
2019-04-10T23:13:36.305Z,100504.64
2019-04-10T23:16:09.266Z,100506.94
2019-04-10T23:18:41.409Z,100500.14
2019-04-10T23:21:14.472Z,100504.23
2019-04-10T23:23:47.523Z,100504.89
2019-04-10T23:26:24.942Z,100502.27
2019-04-10T23:28:57.897Z,100504.95
2019-04-10T23:31:29.888Z,100509.86
2019-04-10T23:34:01.720Z,100509.42
2019-04-10T23:36:34.027Z,100509.13
2019-04-10T23:39:08.103Z,100506.53
2019-04-10T23:41:40.158Z,100504.70
2019-04-10T23:44:13.565Z,100505.09
2019-04-10T23:46:47.466Z,100502.86
2019-04-10T23:49:19.525Z,100501.70
2019-04-10T23:51:53.603Z,100499.72
2019-04-10T23:54:27.032Z,100498.81
2019-04-10T23:56:59.104Z,100503.52
2019-04-10T23:59:30.930Z,100502.36
